• Join FlightAware (Why Join?)
  • Login
  • US Flag 
01:00AM EDT


 

Airport Tracker/Info


-or-


 

Live Flight TrackerFlight Track Log ✈ DAL1721 ✈ 06-May-2012 ✈ KDTW - KTPA

Flight Track Log - Related Links

Times and Time Zones

All times are in EDT time to prevent confusion due to time zone crossing. See the DAL1721 flight status page for this flight to view local times or setup timezone preferences in your user account.

Time Position Orientation Groundspeed Altitude Reporting Facility
EDT Latitude Longitude Course Direction KTS MPH feet Rate Location/Type
08:18PM 42.1922 -83.3600 199° South 176 203 1,800  Level FAA TRACON SMA TRACON (SMA)
08:18PM 42.1536 -83.3778 198° South 238 274 2,900 2,280 Climbing FAA TRACON SMA TRACON (SMA)
08:19PM 42.1081 -83.3972 195° South 262 302 4,900 2,880 Climbing FAA TRACON SMA TRACON (SMA)
08:20PM 42.0600 -83.4144 192° South 278 320 6,800 3,000 Climbing FAA TRACON SMA TRACON (SMA)
08:20PM 42.0069 -83.4292 182° South 289 333 8,900 2,880 Climbing FAA TRACON SMA TRACON (SMA)
08:21PM 41.9525 -83.4314 166° South 302 348 10,600 2,400 Climbing FAA TRACON SMA TRACON (SMA)
08:22PM 41.8961 -83.4128 167° South 317 365 12,200 1,920 Climbing FAA TRACON SMA TRACON (SMA)
08:22PM 41.8367 -83.3939 167° South 330 380 13,200 2,160 Climbing FAA TRACON SMA TRACON (SMA)
08:23PM 41.7739 -83.3739 176° South 336 387 15,100 2,100 Climbing FAA TRACON SMA TRACON (SMA)
08:24PM 41.7117 -83.3678 199° South 348 400 16,000 1,080 Climbing FAA TRACON SMA TRACON (SMA)
08:24PM 41.6503 -83.3967 200° South 360 414 16,600 900 Climbing FAA TRACON SMA TRACON (SMA)
08:25PM 41.5819 -83.4294 200° South 395 455 17,200 1,140 Climbing FAA TRACON SMA TRACON (SMA)
08:26PM 41.5056 -83.4658 200° South 418 481 18,200 1,620 Climbing FAA TRACON SMA TRACON (SMA)
08:26PM 41.4333 -83.5006 200° South 423 487 19,400 1,800 Climbing FAA TRACON SMA TRACON (SMA)
08:27PM 41.3625 -83.5342 199° South 432 497 20,600 1,080 Climbing FAA TRACON SMA TRACON (SMA)
08:28PM 41.3450 -83.5422 199° South 433 498 20,900 1,620 Climbing FAA TRACON SMA TRACON (SMA)
08:28PM 41.1881 -83.6156 201° Southwest 441 507 22,900 2,220 Climbing Cleveland Center
08:29PM 41.1178 -83.6506 202° Southwest 440 506 23,900 1,320 Climbing Indianapolis Center
08:30PM 41.0136 -83.7056 199° South 440 506 25,100 1,320 Climbing Indianapolis Center
08:31PM 40.8947 -83.7603 200° South 457 526 26,600 1,260 Climbing Indianapolis Center
08:32PM 40.7758 -83.8172 200° South 457 526 27,700 1,080 Climbing Indianapolis Center
08:33PM 40.6550 -83.8744 200° South 457 526 28,800 1,200 Climbing Indianapolis Center
08:34PM 40.5339 -83.9311 199° South 462 532 30,200 1,080 Climbing Indianapolis Center
08:35PM 40.4150 -83.9850 199° South 462 532 31,000 300 Climbing Indianapolis Center
08:36PM 40.2958 -84.0386 189° South 462 532 30,900  Descending Indianapolis Center
08:37PM 40.1603 -84.0678 187° South 462 532 31,000  Climbing Indianapolis Center
08:38PM 40.0331 -84.0883 186° South 453 521 31,000  Level Indianapolis Center
08:39PM 39.9081 -84.1064 183° South 453 521 31,000 -60 Level Indianapolis Center
08:40PM 39.7808 -84.1161 178° South 460 529 30,900  Descending Indianapolis Center
08:41PM 39.6578 -84.1097 177° South 453 521 31,000  Climbing Indianapolis Center
08:42PM 39.5286 -84.1008 178° South 458 527 31,000  Level Indianapolis Center
08:43PM 39.4036 -84.0944 177° South 463 533 31,000  Level Indianapolis Center
08:44PM 39.2764 -84.0856 178° South 458 527 31,000  Level Indianapolis Center
08:45PM 39.1492 -84.0792 177° South 458 527 31,000  Level Indianapolis Center
08:46PM 39.0242 -84.0703 178° South 458 527 31,000  Level Indianapolis Center
08:47PM 38.8719 -84.0639 178° South 458 527 31,000  Level Indianapolis Center
08:48PM 38.7508 -84.0575 177° South 453 521 31,000  Level Indianapolis Center
08:49PM 38.6239 -84.0489 178° South 453 521 31,000  Level Indianapolis Center
08:50PM 38.4986 -84.0428 177° South 453 521 31,000  Level Indianapolis Center
08:51PM 38.3714 -84.0339 176° South 459 528 31,000  Level Indianapolis Center
08:52PM 38.2611 -84.0253 179° South 453 521 31,000  Level Indianapolis Center
08:53PM 38.1317 -84.0217 178° South 458 527 31,000  Level Indianapolis Center
08:54PM 38.0067 -84.0156 177° South 458 527 31,000  Level Indianapolis Center
08:55PM 37.8814 -84.0069 178° South 458 527 31,000  Level Indianapolis Center
08:56PM 37.7542 -84.0008 177° South 458 527 31,000  Level Indianapolis Center
08:57PM 37.6269 -83.9922 178° South 458 527 31,000  Level Indianapolis Center
08:58PM 37.4997 -83.9864 178° South 458 527 31,000  Level Indianapolis Center
09:01PM 37.1222 -83.9661 178° South 458 527 31,000  Level Indianapolis Center
09:02PM 36.9972 -83.9600 177° South 458 527 31,000  Level Indianapolis Center
09:07PM 36.4169 -83.9278 175° South 471 542 31,000  Level Atlanta Center
09:12PM 35.7767 -83.8597 167° South 459 528 31,000  Level Atlanta Center
09:13PM 35.6533 -83.8242 166° South 464 534 31,000  Level Atlanta Center
09:14PM 35.5322 -83.7861 166° South 459 528 31,000  Level Atlanta Center
09:15PM 35.4133 -83.7508 167° South 448 516 31,000  Level Atlanta Center
09:16PM 35.2922 -83.7156 166° South 448 516 31,000  Level Atlanta Center
09:17PM 35.1689 -83.6781 166° South 448 516 31,000  Level Atlanta Center
09:18PM 35.0500 -83.6431 166° South 448 516 31,000  Level Atlanta Center
09:19PM 34.9267 -83.6056 166° South 448 516 31,000  Level Atlanta Center
09:20PM 34.8014 -83.5683 167° South 459 528 31,000  Level Atlanta Center
09:21PM 34.6678 -83.5311 168° South 459 528 31,000  Level Atlanta Center
09:22PM 34.5464 -83.4992 165° South 451 519 31,000  Level Atlanta Center
09:23PM 34.4211 -83.4597 168° South 457 526 31,000  Level Atlanta Center
09:24PM 34.2978 -83.4278 165° South 457 526 31,000  Level Atlanta Center
09:25PM 34.1725 -83.3886 166° South 452 520 31,000  Level Atlanta Center
09:26PM 34.0492 -83.3519 167° South 452 520 31,000  Level Atlanta Center
09:27PM 33.9236 -83.3178 164° South 457 526 31,000  Level Atlanta Center
09:28PM 33.8003 -83.2764 162° South 451 519 31,000  Level Atlanta Center
09:29PM 33.6914 -83.2350 164° South 452 520 31,000  Level Atlanta Center
09:30PM 33.5700 -83.1936 164° South 458 527 31,000  Level Atlanta Center
09:31PM 33.4425 -83.1500 164° South 458 527 31,000 120 Level Atlanta Center
09:32PM 33.3189 -83.1067 164° South 458 527 31,300 480 Climbing Atlanta Center
09:33PM 33.1914 -83.0633 165° South 469 540 32,000 300 Climbing Atlanta Center
09:34PM 33.0617 -83.0225 164° South 476 548 32,000  Level Atlanta Center
09:35PM 32.9339 -82.9794 164° South 476 548 32,000  Level Atlanta Center
09:36PM 32.8083 -82.9367 165° South 476 548 32,000  Level Atlanta Center
09:37PM 32.6700 -82.8914 163° South 476 548 32,000  Level Atlanta Center
09:38PM 32.5444 -82.8461 164° South 471 542 32,000  Level Atlanta Center
09:39PM 32.3314 -82.7744 163° South 451 519 32,000  Level Jacksonville Center
09:40PM 32.2081 -82.7306 164° South 451 519 32,000  Level Jacksonville Center
09:41PM 32.0828 -82.6892 164° South 456 525 32,000  Level Jacksonville Center
09:42PM 31.9597 -82.6478 164° South 456 525 32,000  Level Jacksonville Center
09:43PM 31.8425 -82.6089 165° South 456 525 32,000  Level Jacksonville Center
09:44PM 31.7194 -82.5703 164° South 450 518 32,000  Level Jacksonville Center
09:45PM 31.5981 -82.5292 173° South 455 524 32,000  Level Jacksonville Center
09:46PM 31.4769 -82.5125 181° South 455 524 32,000  Level Jacksonville Center
09:47PM 31.3767 -82.5153 183° South 449 517 32,000  Level Jacksonville Center
09:48PM 31.2328 -82.5233 183° South 437 503 32,000  Level Jacksonville Center
09:49PM 31.1200 -82.5311 182° South 444 511 32,000  Level Jacksonville Center
09:50PM 30.9989 -82.5364 182° South 444 511 32,000  Level Jacksonville Center
09:51PM 30.8778 -82.5417 182° South 439 505 32,000  Level Jacksonville Center
09:52PM 30.7547 -82.5469 181° South 439 505 32,000  Level Jacksonville Center
09:53PM 30.6294 -82.5497 181° South 439 505 32,000  Level Jacksonville Center
09:54PM 30.5042 -82.5525 170° South 445 512 32,000  Level Jacksonville Center
09:55PM 30.3831 -82.5289 170° South 445 512 32,000  Level Jacksonville Center
09:56PM 30.2556 -82.5031 169° South 451 519 32,000  Level Jacksonville Center
09:57PM 30.1342 -82.4769 167° South 451 519 32,000  Level Jacksonville Center
09:58PM 30.0131 -82.4439 170° South 451 519 32,000  Level Jacksonville Center
09:59PM 29.8878 -82.4183 170° South 451 519 32,000 -60 Level Jacksonville Center
10:00PM 29.7625 -82.3925 170° South 451 519 31,900 -660 Descending Jacksonville Center
10:01PM 29.6369 -82.3669 173° South 451 519 30,700 -1,860 Descending Jacksonville Center
10:02PM 29.5053 -82.3486 174° South 461 531 28,200 -2,400 Descending Jacksonville Center
10:03PM 29.3800 -82.3325 175° South 466 536 26,000 -1,620 Descending Jacksonville Center
10:04PM 29.2547 -82.3189 174° South 459 528 25,100 -1,980 Descending Jacksonville Center
10:05PM 29.1317 -82.3031 174° South 459 528 22,100 -2,940 Descending Jacksonville Center
10:06PM 29.0106 -82.2894 175° South 453 521 19,300 -2,880 Descending Jacksonville Center
10:08PM 28.7833 -82.2667 173° South 403 464 14,000 -2,100 Descending Tampa TRACON
10:10PM 28.6667 -82.2500 180° South 363 418 12,900 -1,140 Descending Tampa TRACON
10:11PM 28.5667 -82.2500 180° South 360 414 11,600 -1,080 Descending Tampa TRACON
10:12PM 28.4667 -82.2500 188° South 357 411 10,800 -840 Descending Tampa TRACON
10:13PM 28.3667 -82.2667 204° Southwest 328 377 10,000 -1,080 Descending Tampa TRACON
10:14PM 28.3000 -82.3000 199° South 292 336 8,700 -1,140 Descending Tampa TRACON
10:15PM 28.2167 -82.3333 196° South 288 331 7,700 -900 Descending Tampa TRACON
10:15PM 28.1667 -82.3500 199° South 284 327 7,100 -900 Descending Tampa TRACON
10:16PM 28.0833 -82.3833 192° South 274 315 6,100 -1,020 Descending Tampa TRACON
10:17PM 28.0167 -82.4000 192° South 271 312 5,200 -660 Descending Tampa TRACON
10:18PM 27.9500 -82.4167 196° South 233 268 5,000 -540 Descending Tampa TRACON
10:19PM 27.9000 -82.4333 211° Southwest 211 243 4,200 -960 Descending Tampa TRACON
10:20PM 27.8500 -82.4667 211° Southwest 193 222 3,000 -1,140 Descending Tampa TRACON